createdAt,value
2018-05-10T00:02:22.235Z,78.21
2018-05-10T00:05:25.592Z,78.26
2018-05-10T00:08:28.924Z,78.45
2018-05-10T00:11:33.003Z,78.60
2018-05-10T00:14:36.426Z,78.78
2018-05-10T00:17:39.801Z,78.95
2018-05-10T00:20:43.150Z,78.88
2018-05-10T00:23:47.329Z,79.05
2018-05-10T00:26:50.672Z,79.04
2018-05-10T00:29:53.995Z,79.03
2018-05-10T00:32:57.344Z,79.01
2018-05-10T00:36:01.415Z,79.06
2018-05-10T00:39:04.843Z,79.22
2018-05-10T00:42:08.218Z,79.28
2018-05-10T00:45:11.629Z,79.27
2018-05-10T00:48:15.018Z,79.28
2018-05-10T00:51:18.414Z,79.04
2018-05-10T00:54:39.513Z,78.95
2018-05-10T00:57:42.909Z,79.02
2018-05-10T01:00:46.223Z,78.94
2018-05-10T01:03:49.570Z,79.00
2018-05-10T01:06:52.890Z,79.25
2018-05-10T01:09:56.235Z,79.42
2018-05-10T01:13:00.332Z,79.49
2018-05-10T01:16:03.721Z,79.44
2018-05-10T01:19:07.118Z,79.21
2018-05-10T01:22:10.516Z,78.92
2018-05-10T01:25:13.837Z,78.56
2018-05-10T01:28:17.186Z,78.18
2018-05-10T01:31:20.502Z,78.24
2018-05-10T01:34:23.899Z,78.14
2018-05-10T01:37:27.225Z,78.03
2018-05-10T01:40:31.353Z,77.96
2018-05-10T01:43:35.426Z,77.60
2018-05-10T01:46:38.830Z,77.75
2018-05-10T01:49:42.212Z,77.67
2018-05-10T01:52:45.609Z,77.59
2018-05-10T01:55:48.913Z,77.56
2018-05-10T01:58:52.306Z,77.71
2018-05-10T02:01:55.621Z,77.88
2018-05-10T02:04:59.000Z,77.97
2018-05-10T02:08:02.395Z,78.31
2018-05-10T02:11:05.742Z,78.61
2018-05-10T02:14:09.069Z,78.50
2018-05-10T02:17:12.407Z,78.42
2018-05-10T02:20:15.744Z,78.08
2018-05-10T02:23:19.089Z,78.01
2018-05-10T02:26:22.461Z,77.78
2018-05-10T02:29:25.797Z,77.66
2018-05-10T02:32:29.913Z,77.79
2018-05-10T02:35:34.040Z,77.75
2018-05-10T02:38:38.215Z,77.74
2018-05-10T02:41:41.568Z,77.97
2018-05-10T02:44:44.886Z,78.12
2018-05-10T02:47:48.310Z,78.27
2018-05-10T02:50:51.701Z,78.41
2018-05-10T02:53:55.114Z,78.44
2018-05-10T02:56:58.424Z,78.67
2018-05-10T03:00:01.793Z,78.70
2018-05-10T03:03:05.191Z,78.55
2018-05-10T03:06:08.597Z,78.56
2018-05-10T03:09:11.976Z,78.59
2018-05-10T03:12:15.326Z,78.90
2018-05-10T03:15:19.410Z,78.96
2018-05-10T03:18:22.767Z,79.43
2018-05-10T03:21:26.191Z,79.82
2018-05-10T03:24:29.529Z,79.99
2018-05-10T03:27:33.663Z,80.30
2018-05-10T03:30:37.002Z,80.54
2018-05-10T03:33:40.313Z,81.03
2018-05-10T03:36:43.706Z,81.52
2018-05-10T03:39:47.008Z,81.57
2018-05-10T03:42:50.386Z,81.90
2018-05-10T03:45:53.778Z,82.08
2018-05-10T03:48:57.139Z,82.21
2018-05-10T03:52:00.470Z,82.19
2018-05-10T03:55:03.864Z,82.20
2018-05-10T03:58:07.265Z,82.18
2018-05-10T04:01:10.597Z,82.48
2018-05-10T04:04:33.424Z,82.50
2018-05-10T04:07:54.596Z,82.58
2018-05-10T04:11:21.344Z,82.53
2018-05-10T04:14:24.767Z,82.24
2018-05-10T04:17:28.186Z,82.19
2018-05-10T04:20:31.572Z,82.07
2018-05-10T04:23:34.884Z,82.09
2018-05-10T04:26:38.237Z,82.37
2018-05-10T04:29:41.560Z,82.14
2018-05-10T04:32:44.957Z,82.11
2018-05-10T04:35:48.296Z,81.97
2018-05-10T04:38:52.412Z,81.95
2018-05-10T04:41:56.584Z,81.78
2018-05-10T04:44:59.986Z,81.82
2018-05-10T04:48:03.315Z,81.58
2018-05-10T04:51:07.493Z,81.72
2018-05-10T04:54:10.817Z,81.74
2018-05-10T04:57:14.934Z,81.71
2018-05-10T05:00:19.124Z,81.44
2018-05-10T05:03:22.567Z,81.43
2018-05-10T05:06:25.904Z,81.55
2018-05-10T05:09:29.260Z,81.49
2018-05-10T05:12:32.597Z,81.56
2018-05-10T05:15:36.001Z,81.31
2018-05-10T05:18:39.325Z,81.14
2018-05-10T05:21:42.702Z,81.01
2018-05-10T05:24:46.098Z,80.80
2018-05-10T05:27:49.495Z,80.62
2018-05-10T05:30:52.894Z,80.40
2018-05-10T05:33:56.254Z,80.24
2018-05-10T05:36:59.561Z,80.55
2018-05-10T05:40:02.910Z,80.40
2018-05-10T05:43:07.203Z,80.74
2018-05-10T05:46:11.252Z,80.57
2018-05-10T05:49:14.610Z,80.45
2018-05-10T05:52:17.963Z,80.74
2018-05-10T05:55:21.273Z,80.68
2018-05-10T05:58:24.704Z,81.19
2018-05-10T06:01:28.020Z,81.01
2018-05-10T06:04:31.367Z,80.62
2018-05-10T06:07:34.680Z,80.40
2018-05-10T06:10:38.141Z,79.86
2018-05-10T06:13:41.492Z,79.29
2018-05-10T06:16:44.878Z,78.17
2018-05-10T06:19:48.265Z,77.02
2018-05-10T06:22:51.621Z,76.83
2018-05-10T06:25:55.707Z,76.63
2018-05-10T06:28:59.057Z,76.80
2018-05-10T06:32:02.378Z,77.35
2018-05-10T06:35:05.723Z,76.98
2018-05-10T06:38:09.905Z,77.22
2018-05-10T06:41:13.242Z,77.42
2018-05-10T06:44:16.642Z,77.41
2018-05-10T06:47:20.090Z,76.35
2018-05-10T06:50:23.588Z,75.80
2018-05-10T06:53:26.933Z,76.13
2018-05-10T06:56:30.237Z,75.82
2018-05-10T06:59:33.586Z,75.76
2018-05-10T07:02:36.974Z,76.04
2018-05-10T07:05:40.377Z,75.48
2018-05-10T07:08:43.770Z,75.64
2018-05-10T07:11:47.131Z,75.65
2018-05-10T07:14:50.454Z,76.00
2018-05-10T07:17:53.793Z,75.80
2018-05-10T07:20:57.987Z,74.81
2018-05-10T07:24:01.329Z,74.46
2018-05-10T07:27:04.645Z,74.97
2018-05-10T07:30:08.054Z,74.76
2018-05-10T07:33:11.466Z,74.81
2018-05-10T07:36:14.852Z,74.70
2018-05-10T07:39:18.167Z,75.53
2018-05-10T07:42:21.502Z,75.99
2018-05-10T07:45:24.872Z,76.13
2018-05-10T07:48:28.983Z,76.75
2018-05-10T07:51:32.314Z,77.12
2018-05-10T07:54:35.657Z,76.64
2018-05-10T07:57:39.004Z,76.88
2018-05-10T08:00:42.341Z,76.92
2018-05-10T08:03:45.648Z,76.97
2018-05-10T08:06:49.047Z,77.13
2018-05-10T08:09:52.374Z,77.33
2018-05-10T08:12:56.472Z,77.26
2018-05-10T08:16:00.601Z,77.11
2018-05-10T08:19:04.013Z,76.88
2018-05-10T08:22:07.364Z,77.03
2018-05-10T08:25:10.706Z,76.58
2018-05-10T08:28:14.043Z,76.30
2018-05-10T08:31:17.448Z,75.95
2018-05-10T08:34:20.759Z,75.60
2018-05-10T08:37:24.137Z,75.20
2018-05-10T08:40:27.538Z,74.87
2018-05-10T08:43:30.945Z,74.95
2018-05-10T08:46:34.331Z,74.17
2018-05-10T08:49:37.681Z,74.37
2018-05-10T08:52:41.017Z,73.79
2018-05-10T08:55:45.398Z,73.55
2018-05-10T08:58:48.745Z,73.02
2018-05-10T09:01:52.093Z,72.37
2018-05-10T09:04:55.443Z,72.08
2018-05-10T09:07:58.809Z,71.52
2018-05-10T09:11:02.180Z,70.81
2018-05-10T09:14:05.522Z,70.59
2018-05-10T09:17:08.837Z,70.32
2018-05-10T09:20:12.272Z,69.25
2018-05-10T09:23:15.625Z,69.03
2018-05-10T09:26:18.997Z,68.05
2018-05-10T09:29:22.336Z,67.53
2018-05-10T09:32:26.526Z,68.52
2018-05-10T09:35:29.914Z,67.96
2018-05-10T09:38:33.277Z,68.04
2018-05-10T09:41:36.604Z,66.82
2018-05-10T09:44:40.064Z,65.90
2018-05-10T09:47:43.382Z,65.58
2018-05-10T09:50:46.818Z,65.69
2018-05-10T09:53:50.125Z,65.53
2018-05-10T09:56:54.320Z,63.77
2018-05-10T09:59:57.737Z,63.98
2018-05-10T10:03:01.120Z,64.90
2018-05-10T10:06:04.523Z,65.70
2018-05-10T10:09:07.921Z,65.04
2018-05-10T10:12:11.300Z,65.19
2018-05-10T10:15:14.648Z,65.24
2018-05-10T10:18:18.030Z,65.29
2018-05-10T10:21:23.505Z,66.14
2018-05-10T10:24:26.838Z,67.01
2018-05-10T10:27:30.301Z,66.67
2018-05-10T10:30:33.571Z,67.18
2018-05-10T10:33:37.767Z,68.02
2018-05-10T10:36:41.266Z,68.29
2018-05-10T10:39:44.655Z,67.98
2018-05-10T10:42:48.041Z,67.97
2018-05-10T10:45:51.383Z,67.44
2018-05-10T10:48:55.460Z,67.51
2018-05-10T10:51:58.848Z,67.38
2018-05-10T10:55:02.264Z,67.31
2018-05-10T10:58:05.705Z,67.86
2018-05-10T11:01:09.052Z,68.00
2018-05-10T11:04:13.175Z,68.20
2018-05-10T11:07:16.548Z,68.19
2018-05-10T11:10:19.888Z,68.38
2018-05-10T11:13:23.973Z,68.08
2018-05-10T11:16:27.334Z,67.53
2018-05-10T11:19:30.654Z,67.51
2018-05-10T11:22:34.100Z,68.27
2018-05-10T11:25:37.365Z,67.58
2018-05-10T11:28:40.717Z,67.45
2018-05-10T11:31:44.017Z,67.25
2018-05-10T11:34:47.367Z,67.35
2018-05-10T11:37:50.761Z,66.34
2018-05-10T11:40:54.110Z,66.49
2018-05-10T11:43:57.462Z,66.11
2018-05-10T11:47:01.567Z,64.93
2018-05-10T11:50:04.958Z,65.13
2018-05-10T11:53:08.355Z,65.62
2018-05-10T11:56:11.708Z,66.86
2018-05-10T11:59:15.142Z,68.25
2018-05-10T12:02:18.547Z,69.64
2018-05-10T12:05:21.905Z,70.23
2018-05-10T12:08:25.346Z,70.97
2018-05-10T12:11:30.198Z,71.80
2018-05-10T12:14:34.397Z,72.11
2018-05-10T12:17:37.766Z,72.42
2018-05-10T12:20:41.085Z,72.89
2018-05-10T12:23:44.465Z,74.41
2018-05-10T12:26:47.774Z,76.01
2018-05-10T12:29:51.170Z,76.74
2018-05-10T12:32:55.415Z,75.31
2018-05-10T12:35:59.662Z,75.66
2018-05-10T12:39:02.978Z,76.03
2018-05-10T12:42:06.344Z,77.27
2018-05-10T12:45:09.700Z,78.78
2018-05-10T12:48:13.106Z,79.42
2018-05-10T12:51:16.485Z,79.88
2018-05-10T12:54:19.880Z,81.77
2018-05-10T12:57:23.205Z,82.54
2018-05-10T13:00:27.320Z,83.58
2018-05-10T13:03:30.711Z,83.77
2018-05-10T13:06:34.073Z,84.86
2018-05-10T13:09:37.393Z,85.26
2018-05-10T13:12:40.736Z,86.07
2018-05-10T13:15:44.086Z,86.09
2018-05-10T13:18:47.439Z,86.24
2018-05-10T13:21:50.817Z,85.90
2018-05-10T13:24:54.922Z,85.96
2018-05-10T13:27:59.114Z,86.87
2018-05-10T13:31:02.462Z,87.40
2018-05-10T13:34:05.781Z,87.84
2018-05-10T13:37:09.146Z,88.40
2018-05-10T13:40:12.503Z,89.46
2018-05-10T13:43:15.849Z,88.90
2018-05-10T13:46:19.169Z,88.67
2018-05-10T13:49:22.527Z,89.08
2018-05-10T13:52:25.853Z,88.25
2018-05-10T13:55:29.206Z,87.40
2018-05-10T13:58:33.320Z,87.39
2018-05-10T14:01:37.565Z,86.30
2018-05-10T14:04:40.894Z,86.27
2018-05-10T14:07:44.323Z,86.09
2018-05-10T14:10:47.713Z,86.21
2018-05-10T14:13:51.175Z,85.40
2018-05-10T14:16:54.506Z,85.46
2018-05-10T14:19:57.866Z,86.37
2018-05-10T14:23:01.187Z,87.29
2018-05-10T14:26:04.583Z,87.70
2018-05-10T14:29:07.999Z,87.71
2018-05-10T14:32:11.346Z,88.16
2018-05-10T14:35:14.661Z,88.02
2018-05-10T14:38:18.034Z,88.02
2018-05-10T14:41:21.353Z,86.90
2018-05-10T14:44:24.713Z,86.58
2018-05-10T14:47:28.047Z,86.02
2018-05-10T14:50:31.476Z,86.37
2018-05-10T14:53:34.811Z,86.68
2018-05-10T14:56:38.165Z,87.10
2018-05-10T14:59:41.527Z,86.65
2018-05-10T15:02:44.860Z,85.06
2018-05-10T15:05:48.244Z,84.25
2018-05-10T15:08:51.591Z,84.35
2018-05-10T15:11:54.943Z,85.38
2018-05-10T15:14:58.361Z,84.93
2018-05-10T15:18:01.748Z,85.32
2018-05-10T15:21:05.094Z,85.74
2018-05-10T15:24:08.421Z,85.33
2018-05-10T15:27:11.783Z,85.09
2018-05-10T15:30:15.143Z,84.97
2018-05-10T15:33:18.519Z,84.42
2018-05-10T15:36:21.921Z,83.89
2018-05-10T15:39:26.522Z,84.26
2018-05-10T15:42:29.868Z,83.99
2018-05-10T15:45:33.987Z,83.74
2018-05-10T15:48:38.074Z,84.02
2018-05-10T15:51:41.551Z,83.58
2018-05-10T15:54:45.591Z,82.95
2018-05-10T15:57:48.943Z,83.21
2018-05-10T16:00:52.378Z,83.72
2018-05-10T16:03:55.728Z,84.13
2018-05-10T16:06:59.045Z,83.43
2018-05-10T16:10:02.407Z,83.95
2018-05-10T16:13:05.765Z,83.89
2018-05-10T16:16:09.148Z,83.85
2018-05-10T16:19:12.498Z,83.43
2018-05-10T16:22:16.613Z,83.79
2018-05-10T16:25:20.705Z,83.69
2018-05-10T16:28:24.057Z,83.00
2018-05-10T16:31:27.480Z,82.85
2018-05-10T16:34:30.830Z,83.41
2018-05-10T16:37:34.202Z,82.96
2018-05-10T16:40:38.918Z,83.59
2018-05-10T16:43:42.278Z,82.84
2018-05-10T16:46:45.634Z,82.77
2018-05-10T16:49:49.738Z,83.10
2018-05-10T16:52:53.867Z,82.96
2018-05-10T16:55:57.956Z,83.12
2018-05-10T16:59:01.289Z,83.78
2018-05-10T17:02:04.637Z,82.83
2018-05-10T17:05:08.031Z,83.09
2018-05-10T17:08:11.447Z,82.52
2018-05-10T17:11:14.810Z,82.70
2018-05-10T17:14:18.240Z,82.51
2018-05-10T17:17:21.582Z,83.08
2018-05-10T17:20:24.905Z,82.68
2018-05-10T17:23:28.334Z,83.27
2018-05-10T17:26:31.706Z,82.97
2018-05-10T17:29:35.063Z,82.93
2018-05-10T17:32:38.465Z,82.89
2018-05-10T17:35:41.837Z,82.73
2018-05-10T17:38:46.016Z,81.94
2018-05-10T17:41:49.478Z,82.17
2018-05-10T17:44:52.723Z,81.79
2018-05-10T17:47:56.117Z,80.79
2018-05-10T17:50:59.425Z,80.20
2018-05-10T17:54:03.570Z,79.65
2018-05-10T17:57:07.748Z,79.87
2018-05-10T18:00:11.138Z,80.10
2018-05-10T18:03:14.471Z,80.01
2018-05-10T18:06:18.612Z,79.51
2018-05-10T18:09:21.933Z,79.79
2018-05-10T18:12:25.277Z,79.48
2018-05-10T18:15:29.370Z,79.58
2018-05-10T18:18:32.827Z,79.09
2018-05-10T18:21:36.177Z,79.17
2018-05-10T18:24:39.562Z,78.35
2018-05-10T18:27:42.887Z,78.91
2018-05-10T18:30:46.269Z,78.47
2018-05-10T18:33:49.630Z,78.47
2018-05-10T18:36:53.045Z,78.41
2018-05-10T18:39:56.459Z,78.23
2018-05-10T18:42:59.811Z,78.84
2018-05-10T18:46:03.128Z,79.06
2018-05-10T18:49:06.488Z,79.42
2018-05-10T18:52:10.625Z,79.46
2018-05-10T18:55:13.985Z,79.43
2018-05-10T18:58:17.358Z,79.28
2018-05-10T19:01:20.709Z,79.67
2018-05-10T19:04:24.041Z,79.70
2018-05-10T19:07:27.477Z,80.38
2018-05-10T19:10:30.811Z,80.79
2018-05-10T19:13:34.266Z,80.74
2018-05-10T19:16:37.656Z,80.30
2018-05-10T19:19:41.055Z,80.47
2018-05-10T19:22:44.439Z,80.44
2018-05-10T19:25:47.793Z,80.30
2018-05-10T19:28:51.141Z,80.49
2018-05-10T19:31:55.337Z,80.00
2018-05-10T19:34:58.612Z,80.51
2018-05-10T19:38:02.062Z,80.86
2018-05-10T19:41:05.391Z,80.92
2018-05-10T19:44:09.573Z,80.96
2018-05-10T19:47:12.908Z,81.10
2018-05-10T19:50:17.093Z,81.58
2018-05-10T19:53:20.518Z,81.35
2018-05-10T19:56:24.651Z,81.40
2018-05-10T19:59:27.976Z,81.53
2018-05-10T20:02:31.326Z,81.80
2018-05-10T20:05:35.413Z,81.94
2018-05-10T20:08:38.824Z,82.35
2018-05-10T20:11:42.113Z,82.42
2018-05-10T20:14:45.480Z,82.70
2018-05-10T20:17:48.805Z,83.36
2018-05-10T20:20:52.194Z,83.10
2018-05-10T20:23:55.625Z,83.31
2018-05-10T20:26:58.936Z,82.91
2018-05-10T20:30:03.019Z,82.77
2018-05-10T20:33:06.371Z,82.93
2018-05-10T20:36:09.720Z,83.04
2018-05-10T20:39:13.108Z,83.00
2018-05-10T20:42:16.631Z,83.33
2018-05-10T20:45:20.381Z,83.36
2018-05-10T20:48:24.282Z,83.46
2018-05-10T20:51:28.841Z,83.65
2018-05-10T20:54:33.018Z,83.69
2018-05-10T20:57:36.518Z,83.73
2018-05-10T21:00:40.192Z,83.87
2018-05-10T21:03:43.599Z,83.98
2018-05-10T21:06:47.699Z,83.98
2018-05-10T21:09:51.092Z,84.01
2018-05-10T21:12:54.489Z,84.05
2018-05-10T21:15:57.862Z,84.07
2018-05-10T21:19:01.303Z,83.70
2018-05-10T21:22:06.174Z,83.66
2018-05-10T21:25:09.580Z,83.69
2018-05-10T21:28:12.928Z,83.98
2018-05-10T21:31:16.265Z,84.15
2018-05-10T21:34:19.621Z,84.58
2018-05-10T21:37:22.948Z,83.93
2018-05-10T21:40:26.483Z,83.68
2018-05-10T21:43:29.814Z,83.99
2018-05-10T21:46:33.223Z,83.42
2018-05-10T21:49:55.176Z,82.98
2018-05-10T21:52:58.537Z,82.62
2018-05-10T21:56:02.628Z,82.51
2018-05-10T21:59:05.960Z,81.99
2018-05-10T22:02:09.284Z,82.03
2018-05-10T22:05:12.731Z,82.06
2018-05-10T22:08:16.135Z,82.19
2018-05-10T22:11:20.241Z,81.80
2018-05-10T22:14:23.564Z,82.09
2018-05-10T22:17:26.945Z,82.06
2018-05-10T22:20:30.256Z,81.90
2018-05-10T22:23:33.629Z,82.00
2018-05-10T22:26:37.029Z,81.99
2018-05-10T22:29:40.384Z,82.34
2018-05-10T22:32:43.764Z,82.63
2018-05-10T22:35:47.857Z,82.79
2018-05-10T22:38:51.170Z,82.82
2018-05-10T22:41:54.552Z,82.92
2018-05-10T22:44:57.944Z,83.03
2018-05-10T22:48:01.428Z,82.74
2018-05-10T22:51:06.478Z,82.66
2018-05-10T22:54:09.822Z,82.37
2018-05-10T22:57:13.989Z,82.00
2018-05-10T23:00:17.338Z,82.44
2018-05-10T23:03:21.512Z,82.35
2018-05-10T23:06:24.861Z,82.17
2018-05-10T23:09:28.938Z,82.15
2018-05-10T23:12:32.287Z,82.19
2018-05-10T23:15:35.597Z,81.98
2018-05-10T23:18:38.944Z,81.67
2018-05-10T23:21:42.268Z,81.28
2018-05-10T23:24:46.364Z,81.62
2018-05-10T23:27:49.726Z,81.87
2018-05-10T23:30:53.063Z,82.06
2018-05-10T23:33:57.145Z,82.21
2018-05-10T23:37:00.554Z,82.43
2018-05-10T23:40:03.942Z,82.58
2018-05-10T23:43:07.298Z,82.53
2018-05-10T23:46:10.615Z,82.74
2018-05-10T23:49:14.033Z,82.96
2018-05-10T23:52:17.439Z,83.37
2018-05-10T23:55:20.770Z,83.84
2018-05-10T23:58:24.953Z,83.93
